createdAt,value
2023-11-11T00:00:37.837Z,7.64
2023-11-11T00:03:25.800Z,7.63
2023-11-11T00:05:53.534Z,7.61
2023-11-11T00:08:23.583Z,7.59
2023-11-11T00:10:51.373Z,7.57
2023-11-11T00:13:20.974Z,7.55
2023-11-11T00:15:48.820Z,7.51
2023-11-11T00:18:19.295Z,7.49
2023-11-11T00:20:51.982Z,7.49
2023-11-11T00:23:22.467Z,7.48
2023-11-11T00:25:50.433Z,7.46
2023-11-11T00:28:18.343Z,7.46
2023-11-11T00:30:47.139Z,7.45
2023-11-11T00:33:15.185Z,7.45
2023-11-11T00:35:43.298Z,7.42
2023-11-11T00:38:11.394Z,7.41
2023-11-11T00:40:41.292Z,7.40
2023-11-11T00:43:10.290Z,7.37
2023-11-11T00:45:38.304Z,7.37
2023-11-11T00:48:06.266Z,7.39
2023-11-11T00:50:34.130Z,7.41
2023-11-11T00:53:02.421Z,7.40
2023-11-11T00:55:30.570Z,7.41
2023-11-11T00:57:59.920Z,7.41
2023-11-11T01:00:27.784Z,7.41
2023-11-11T01:02:55.873Z,7.41
2023-11-11T01:05:24.852Z,7.40
2023-11-11T01:07:53.117Z,7.40
2023-11-11T01:10:23.874Z,7.40
2023-11-11T01:12:55.251Z,7.40
2023-11-11T01:15:23.324Z,7.39
2023-11-11T01:17:51.317Z,7.39
2023-11-11T01:20:19.219Z,7.38
2023-11-11T01:22:47.618Z,7.38
2023-11-11T01:25:15.402Z,7.37
2023-11-11T01:27:43.287Z,7.36
2023-11-11T01:30:11.527Z,7.37
2023-11-11T01:32:40.208Z,7.38
2023-11-11T01:35:08.518Z,7.39
2023-11-11T01:37:36.247Z,7.39
2023-11-11T01:40:04.508Z,7.38
2023-11-11T01:42:32.336Z,7.39
2023-11-11T01:45:02.869Z,7.38
2023-11-11T01:47:32.193Z,7.36
2023-11-11T01:49:59.935Z,7.36
2023-11-11T01:52:29.198Z,7.35
2023-11-11T01:54:58.007Z,7.34
2023-11-11T01:57:26.702Z,7.33
2023-11-11T01:59:56.082Z,7.29
2023-11-11T02:02:24.243Z,7.28
2023-11-11T02:04:52.229Z,7.28
2023-11-11T02:07:20.681Z,7.29
2023-11-11T02:09:49.833Z,7.28
2023-11-11T02:12:19.024Z,7.28
2023-11-11T02:14:47.102Z,7.28
2023-11-11T02:17:14.847Z,7.28
2023-11-11T02:19:42.575Z,7.27
2023-11-11T02:22:11.238Z,7.27
2023-11-11T02:24:41.756Z,7.26
2023-11-11T02:27:09.881Z,7.27
2023-11-11T02:29:45.237Z,7.28
2023-11-11T02:32:14.308Z,7.28
2023-11-11T02:34:42.394Z,7.29
2023-11-11T02:37:10.158Z,7.31
2023-11-11T02:39:38.010Z,7.31
2023-11-11T02:42:05.862Z,7.32
2023-11-11T02:44:33.533Z,7.32
2023-11-11T02:47:01.284Z,7.31
2023-11-11T02:49:29.803Z,7.32
2023-11-11T02:51:57.563Z,7.32
2023-11-11T02:54:26.902Z,7.33
2023-11-11T02:56:54.810Z,7.34
2023-11-11T02:59:22.744Z,7.35
2023-11-11T03:01:52.337Z,7.35
2023-11-11T03:04:20.336Z,7.37
2023-11-11T03:06:48.231Z,7.40
2023-11-11T03:09:16.632Z,7.41
2023-11-11T03:11:44.860Z,7.42
2023-11-11T03:14:12.622Z,7.42
2023-11-11T03:16:42.084Z,7.42
2023-11-11T03:19:10.499Z,7.42
2023-11-11T03:21:38.213Z,7.42
2023-11-11T03:24:07.287Z,7.41
2023-11-11T03:26:35.055Z,7.39
2023-11-11T03:29:03.479Z,7.39
2023-11-11T03:31:31.236Z,7.39
2023-11-11T03:33:58.968Z,7.41
2023-11-11T03:36:26.831Z,7.42
2023-11-11T03:38:54.608Z,7.43
2023-11-11T03:41:22.678Z,7.43
2023-11-11T03:43:50.502Z,7.43
2023-11-11T03:46:18.544Z,7.42
2023-11-11T03:48:46.500Z,7.41
2023-11-11T03:51:14.197Z,7.41
2023-11-11T03:53:41.877Z,7.41
2023-11-11T03:56:09.700Z,7.40
2023-11-11T03:58:39.837Z,7.41
2023-11-11T04:01:10.535Z,7.41
2023-11-11T04:03:40.772Z,7.42
2023-11-11T04:06:10.548Z,7.43
2023-11-11T04:08:40.878Z,7.41
2023-11-11T04:11:09.613Z,7.43
2023-11-11T04:13:41.849Z,7.42
2023-11-11T04:16:11.369Z,7.41
2023-11-11T04:18:39.706Z,7.39
2023-11-11T04:21:07.697Z,7.36
2023-11-11T04:23:36.011Z,7.32
2023-11-11T04:26:03.937Z,7.28
2023-11-11T04:28:31.685Z,7.28
2023-11-11T04:30:59.329Z,7.25
2023-11-11T04:33:29.019Z,7.21
2023-11-11T04:35:56.871Z,7.19
2023-11-11T04:38:28.384Z,7.16
2023-11-11T04:40:58.305Z,7.14
2023-11-11T04:43:26.137Z,7.13
2023-11-11T04:48:43.326Z,7.10
2023-11-11T04:51:11.295Z,7.04
2023-11-11T04:53:39.084Z,7.02
2023-11-11T04:56:07.088Z,6.98
2023-11-11T04:58:39.448Z,6.97
2023-11-11T05:01:07.180Z,6.94
2023-11-11T05:03:35.970Z,6.92
2023-11-11T05:06:04.387Z,6.87
2023-11-11T05:08:34.020Z,6.84
2023-11-11T05:11:02.619Z,6.82
2023-11-11T05:13:35.169Z,6.82
2023-11-11T05:16:15.490Z,6.81
2023-11-11T05:18:48.210Z,6.79
2023-11-11T05:21:17.814Z,6.77
2023-11-11T05:23:45.608Z,6.75
2023-11-11T05:26:14.941Z,6.76
2023-11-11T05:28:42.729Z,6.75
2023-11-11T05:31:10.732Z,6.74
2023-11-11T05:33:39.110Z,6.73
2023-11-11T05:36:09.469Z,6.71
2023-11-11T05:38:37.338Z,6.69
2023-11-11T05:41:05.458Z,6.70
2023-11-11T05:43:33.284Z,6.69
2023-11-11T05:46:01.394Z,6.68
2023-11-11T05:48:30.179Z,6.68
2023-11-11T05:50:58.283Z,6.70
2023-11-11T05:53:26.452Z,6.71
2023-11-11T05:55:54.134Z,6.70
2023-11-11T05:58:21.994Z,6.69
2023-11-11T06:00:49.687Z,6.68
2023-11-11T06:03:19.318Z,6.68
2023-11-11T06:05:50.317Z,6.66
2023-11-11T06:08:17.948Z,6.65
2023-11-11T06:10:45.860Z,6.66
2023-11-11T06:13:13.559Z,6.65
2023-11-11T06:15:41.585Z,6.66
2023-11-11T06:18:09.596Z,6.69
2023-11-11T06:20:37.458Z,6.68
2023-11-11T06:25:38.368Z,6.72
2023-11-11T06:28:07.869Z,6.75
2023-11-11T06:30:36.166Z,6.78
2023-11-11T06:33:04.132Z,6.81
2023-11-11T06:35:31.945Z,6.83
2023-11-11T06:37:59.617Z,6.86
2023-11-11T06:40:28.512Z,6.88
2023-11-11T06:42:57.031Z,6.91
2023-11-11T06:45:25.154Z,6.93
2023-11-11T06:47:53.109Z,6.93
2023-11-11T06:50:23.171Z,6.96
2023-11-11T06:52:50.972Z,6.97
2023-11-11T06:55:18.780Z,6.97
2023-11-11T06:57:46.562Z,6.95
2023-11-11T07:00:20.146Z,6.96
2023-11-11T07:02:48.897Z,6.99
2023-11-11T07:05:16.758Z,7.00
2023-11-11T07:07:44.953Z,7.02
2023-11-11T07:10:13.385Z,7.06
2023-11-11T07:12:42.429Z,7.07
2023-11-11T07:15:11.572Z,7.07
2023-11-11T07:17:42.734Z,7.07
2023-11-11T07:20:11.775Z,7.08
2023-11-11T07:22:40.222Z,7.11
2023-11-11T07:25:10.350Z,7.14
2023-11-11T07:27:38.274Z,7.15
2023-11-11T07:30:10.863Z,7.15
2023-11-11T07:32:47.272Z,7.18
2023-11-11T07:35:21.078Z,7.23
2023-11-11T07:37:50.834Z,7.28
2023-11-11T07:40:18.588Z,7.36
2023-11-11T07:42:46.334Z,7.42
2023-11-11T07:45:14.266Z,7.60
2023-11-11T07:47:42.635Z,7.86
2023-11-11T07:50:10.842Z,8.05
2023-11-11T07:52:38.710Z,8.15
2023-11-11T07:55:07.170Z,8.23
2023-11-11T08:00:07.731Z,8.42
2023-11-11T08:02:37.412Z,8.51
2023-11-11T08:05:05.522Z,8.55
2023-11-11T08:07:33.276Z,8.58
2023-11-11T08:10:00.979Z,8.59
2023-11-11T08:12:30.508Z,8.56
2023-11-11T08:15:01.609Z,8.56
2023-11-11T08:17:29.518Z,8.55
2023-11-11T08:19:57.672Z,8.52
2023-11-11T08:22:26.705Z,8.49
2023-11-11T08:24:54.409Z,8.45
2023-11-11T08:27:22.157Z,8.44
2023-11-11T08:29:50.431Z,8.43
2023-11-11T08:32:18.417Z,8.40
2023-11-11T08:34:46.097Z,8.37
2023-11-11T08:37:14.749Z,8.35
2023-11-11T08:39:43.415Z,8.36
2023-11-11T08:42:11.184Z,8.37
2023-11-11T08:58:16.103Z,8.72
2023-11-11T09:00:47.089Z,8.72
2023-11-11T09:03:15.066Z,8.68
2023-11-11T09:05:42.876Z,8.61
2023-11-11T09:08:10.724Z,8.55
2023-11-11T09:10:39.239Z,8.54
2023-11-11T09:13:07.056Z,8.53
2023-11-11T09:15:35.042Z,8.53
2023-11-11T09:18:03.183Z,8.50
2023-11-11T09:20:33.398Z,8.50
2023-11-11T09:23:01.281Z,8.49
2023-11-11T09:25:30.953Z,8.46
2023-11-11T09:27:59.056Z,8.48
2023-11-11T09:30:26.908Z,8.50
2023-11-11T09:32:55.188Z,8.52
2023-11-11T09:35:23.476Z,8.52
2023-11-11T09:37:52.308Z,8.51
2023-11-11T09:40:20.043Z,8.50
2023-11-11T09:42:48.384Z,8.51
2023-11-11T09:47:52.301Z,8.53
2023-11-11T09:50:27.844Z,8.55
2023-11-11T09:52:58.067Z,8.56
2023-11-11T09:55:26.963Z,8.55
2023-11-11T09:57:58.069Z,8.52
2023-11-11T10:00:28.881Z,8.51
2023-11-11T10:02:57.818Z,8.53
2023-11-11T10:05:26.749Z,8.55
2023-11-11T10:07:56.765Z,8.57
2023-11-11T10:10:25.932Z,8.61
2023-11-11T10:12:53.816Z,8.64
2023-11-11T10:15:22.717Z,8.66
2023-11-11T10:17:50.688Z,8.69
2023-11-11T10:20:18.717Z,8.72
2023-11-11T10:22:48.641Z,8.80
2023-11-11T10:25:19.446Z,8.88
2023-11-11T10:27:56.067Z,8.99
2023-11-11T10:30:25.972Z,9.13
2023-11-11T10:32:55.654Z,9.23
2023-11-11T10:35:25.766Z,9.27
2023-11-11T10:37:53.936Z,9.30
2023-11-11T10:40:22.482Z,9.35
2023-11-11T10:42:51.174Z,9.38
2023-11-11T10:45:19.277Z,9.41
2023-11-11T10:47:48.286Z,9.42
2023-11-11T10:50:16.277Z,9.41
2023-11-11T10:52:44.928Z,9.41
2023-11-11T10:55:14.118Z,9.40
2023-11-11T10:57:43.681Z,9.38
2023-11-11T11:00:22.446Z,9.37
2023-11-11T11:02:54.638Z,9.33
2023-11-11T11:05:45.704Z,9.30
2023-11-11T11:08:23.308Z,9.29
2023-11-11T11:11:28.541Z,9.25
2023-11-11T11:14:07.116Z,9.20
2023-11-11T11:16:39.481Z,9.21
2023-11-11T11:19:08.934Z,9.21
2023-11-11T11:21:36.742Z,9.22
2023-11-11T11:24:11.003Z,9.20
2023-11-11T11:26:38.903Z,9.17
2023-11-11T11:29:15.063Z,9.19
2023-11-11T11:32:05.662Z,9.19
2023-11-11T11:34:37.318Z,9.16
2023-11-11T11:37:09.238Z,9.16
2023-11-11T11:40:02.193Z,9.12
2023-11-11T11:42:31.613Z,9.09
2023-11-11T11:45:00.340Z,9.10
2023-11-11T11:47:35.067Z,9.06
2023-11-11T11:50:04.962Z,9.04
2023-11-11T11:52:33.220Z,9.03
2023-11-11T11:55:01.186Z,9.01
2023-11-11T11:57:29.163Z,8.98
2023-11-11T12:00:16.094Z,8.95
2023-11-11T12:02:44.320Z,8.95
2023-11-11T12:05:13.750Z,8.94
2023-11-11T12:07:41.864Z,8.95
2023-11-11T12:10:12.410Z,8.96
2023-11-11T12:12:42.311Z,8.95
2023-11-11T12:15:12.158Z,8.95
2023-11-11T12:17:48.682Z,8.96
2023-11-11T12:20:19.090Z,8.96
2023-11-11T12:22:48.599Z,8.97
2023-11-11T12:25:16.660Z,8.98
2023-11-11T12:27:44.617Z,8.97
2023-11-11T12:30:20.342Z,8.95
2023-11-11T12:33:09.884Z,8.96
2023-11-11T12:35:39.985Z,8.97
2023-11-11T12:38:25.564Z,8.97
2023-11-11T12:40:54.787Z,8.96
2023-11-11T12:43:23.960Z,8.99
2023-11-11T12:45:56.429Z,9.01
2023-11-11T12:48:30.586Z,9.04
2023-11-11T12:50:58.609Z,9.07
2023-11-11T12:53:26.840Z,9.10
2023-11-11T12:56:06.050Z,9.10
2023-11-11T12:58:34.251Z,9.11
2023-11-11T13:01:06.441Z,9.10
2023-11-11T13:03:34.971Z,9.09
2023-11-11T13:06:08.175Z,9.09
2023-11-11T13:08:36.425Z,9.08
2023-11-11T13:11:05.164Z,9.04
2023-11-11T13:13:34.862Z,9.00
2023-11-11T13:16:05.241Z,8.97
2023-11-11T13:18:33.495Z,8.93
2023-11-11T13:21:02.598Z,8.91
2023-11-11T13:23:31.655Z,8.90
2023-11-11T13:26:00.172Z,8.90
2023-11-11T13:28:29.797Z,8.89
2023-11-11T13:30:58.329Z,8.88
2023-11-11T13:33:26.838Z,8.85
2023-11-11T13:35:56.768Z,8.84
2023-11-11T13:38:24.648Z,8.83
2023-11-11T13:40:53.405Z,8.84
2023-11-11T13:43:24.334Z,8.82
2023-11-11T13:47:09.963Z,8.84
2023-11-11T13:49:38.185Z,8.80
2023-11-11T13:52:06.576Z,8.78
2023-11-11T13:54:34.490Z,8.77
2023-11-11T13:57:02.269Z,8.76
2023-11-11T13:59:29.993Z,8.74
2023-11-11T14:01:59.907Z,8.74
2023-11-11T14:04:28.753Z,8.76
2023-11-11T14:06:57.763Z,8.75
2023-11-11T14:09:26.717Z,8.75
2023-11-11T14:11:54.438Z,8.77
2023-11-11T14:14:22.206Z,8.78
2023-11-11T14:16:50.070Z,8.78
2023-11-11T14:19:18.093Z,8.78
2023-11-11T14:21:45.795Z,8.78
2023-11-11T14:24:13.451Z,8.79
2023-11-11T14:26:47.904Z,8.80
2023-11-11T14:29:15.946Z,8.79
2023-11-11T14:31:44.075Z,8.80
2023-11-11T14:34:12.058Z,8.81
2023-11-11T14:36:40.359Z,8.81
2023-11-11T14:39:09.973Z,8.81
2023-11-11T14:41:38.756Z,8.81
2023-11-11T14:44:07.213Z,8.80
2023-11-11T14:46:36.847Z,8.78
2023-11-11T14:49:10.268Z,8.76
2023-11-11T14:51:38.099Z,8.73
2023-11-11T14:54:06.332Z,8.71
2023-11-11T14:56:36.237Z,8.69
2023-11-11T14:59:05.226Z,8.71
2023-11-11T15:01:33.838Z,8.72
2023-11-11T15:04:02.107Z,8.70
2023-11-11T15:06:33.699Z,8.68
2023-11-11T15:09:01.896Z,8.65
2023-11-11T15:11:29.889Z,8.65
2023-11-11T15:14:03.699Z,8.65
2023-11-11T15:16:33.166Z,8.64
2023-11-11T15:19:02.783Z,8.62
2023-11-11T15:21:30.897Z,8.59
2023-11-11T15:23:58.917Z,8.58
2023-11-11T15:26:27.110Z,8.56
2023-11-11T15:28:54.977Z,8.53
2023-11-11T15:31:29.270Z,8.53
2023-11-11T15:33:59.185Z,8.52
2023-11-11T15:36:27.407Z,8.52
2023-11-11T15:38:57.388Z,8.48
2023-11-11T15:41:25.427Z,8.48
2023-11-11T15:43:53.933Z,8.46
2023-11-11T15:46:22.092Z,8.44
2023-11-11T15:48:49.911Z,8.45
2023-11-11T15:51:23.105Z,8.44
2023-11-11T15:53:53.666Z,8.43
2023-11-11T15:56:21.732Z,8.42
2023-11-11T15:58:50.042Z,8.42
2023-11-11T16:01:19.737Z,8.43
2023-11-11T16:03:51.011Z,8.42
2023-11-11T16:06:19.291Z,8.42
2023-11-11T16:08:47.174Z,8.42
2023-11-11T16:11:18.167Z,8.42
2023-11-11T16:13:46.000Z,8.40
2023-11-11T16:16:20.820Z,8.40
2023-11-11T16:18:49.879Z,8.37
2023-11-11T16:21:22.619Z,8.35
2023-11-11T16:23:53.070Z,8.35
2023-11-11T16:26:21.653Z,8.35
2023-11-11T16:28:49.408Z,8.36
2023-11-11T16:31:24.901Z,8.37
2023-11-11T16:33:54.438Z,8.37
2023-11-11T16:36:25.383Z,8.36
2023-11-11T16:38:55.153Z,8.34
2023-11-11T16:41:24.787Z,8.32
2023-11-11T16:43:52.974Z,8.31
2023-11-11T16:46:22.918Z,8.29
2023-11-11T16:48:51.290Z,8.28
2023-11-11T16:51:20.603Z,8.27
2023-11-11T16:53:48.492Z,8.26
2023-11-11T16:56:18.482Z,8.25
2023-11-11T16:58:46.255Z,8.24
2023-11-11T17:01:15.601Z,8.23
2023-11-11T17:03:43.480Z,8.23
2023-11-11T17:06:11.494Z,8.21
2023-11-11T17:08:40.090Z,8.21
2023-11-11T17:11:09.558Z,8.20
2023-11-11T17:13:40.807Z,8.20
2023-11-11T17:16:10.393Z,8.20
2023-11-11T17:18:38.464Z,8.21
2023-11-11T17:21:06.248Z,8.21
2023-11-11T17:23:34.073Z,8.21
2023-11-11T17:26:01.797Z,8.21
2023-11-11T17:28:31.239Z,8.22
2023-11-11T17:30:59.687Z,8.21
2023-11-11T17:33:35.951Z,8.22
2023-11-11T17:36:12.209Z,8.22
2023-11-11T17:38:41.254Z,8.21
2023-11-11T17:41:13.584Z,8.19
2023-11-11T17:43:42.704Z,8.19
2023-11-11T17:46:19.199Z,8.19
2023-11-11T17:48:48.077Z,8.18
2023-11-11T17:51:16.882Z,8.19
2023-11-11T17:53:44.708Z,8.17
2023-11-11T17:56:20.535Z,8.17
2023-11-11T17:58:49.044Z,8.18
2023-11-11T18:01:18.115Z,8.17
2023-11-11T18:03:47.070Z,8.15
2023-11-11T18:06:14.905Z,8.15
2023-11-11T18:08:42.929Z,8.14
2023-11-11T18:11:11.413Z,8.12
2023-11-11T18:13:39.609Z,8.11
2023-11-11T18:16:18.293Z,8.10
2023-11-11T18:18:46.788Z,8.08
2023-11-11T18:21:16.075Z,8.06
2023-11-11T18:23:45.223Z,8.05
2023-11-11T18:26:13.609Z,8.03
2023-11-11T18:28:41.643Z,8.01
2023-11-11T18:31:09.622Z,7.98
2023-11-11T18:33:37.703Z,7.91
2023-11-11T18:36:07.183Z,7.89
2023-11-11T18:38:36.719Z,7.87
2023-11-11T18:41:05.196Z,7.83
2023-11-11T18:43:33.116Z,7.79
2023-11-11T18:46:01.167Z,7.75
2023-11-11T18:48:29.371Z,7.70
2023-11-11T18:50:57.159Z,7.65
2023-11-11T18:53:24.941Z,7.60
2023-11-11T18:55:52.656Z,7.56
2023-11-11T18:58:21.842Z,7.53
2023-11-11T19:00:50.550Z,7.50
2023-11-11T19:03:19.009Z,7.47
2023-11-11T19:05:46.892Z,7.45
2023-11-11T19:08:14.712Z,7.41
2023-11-11T19:10:43.378Z,7.39
2023-11-11T19:13:11.775Z,7.36
2023-11-11T19:15:39.587Z,7.32
2023-11-11T19:18:07.962Z,7.26
2023-11-11T19:20:36.254Z,7.21
2023-11-11T19:23:05.227Z,7.17
2023-11-11T19:25:33.160Z,7.12
2023-11-11T19:28:01.350Z,7.08
2023-11-11T19:30:29.820Z,7.05
2023-11-11T19:32:57.778Z,7.03
2023-11-11T19:35:25.842Z,7.00
2023-11-11T19:37:55.393Z,6.94
2023-11-11T19:40:23.755Z,6.88
2023-11-11T19:42:51.767Z,6.84
2023-11-11T19:45:19.515Z,6.77
2023-11-11T19:47:47.685Z,6.69
2023-11-11T19:50:15.568Z,6.66
2023-11-11T19:52:43.360Z,6.64
2023-11-11T19:55:11.179Z,6.65
2023-11-11T19:57:41.551Z,6.67
2023-11-11T20:00:12.720Z,6.69
2023-11-11T20:02:41.332Z,6.72
2023-11-11T20:05:09.555Z,6.76
2023-11-11T20:07:37.728Z,6.78
2023-11-11T20:10:06.795Z,6.80
2023-11-11T20:12:37.449Z,6.81
2023-11-11T20:15:12.148Z,6.81
2023-11-11T20:17:41.237Z,6.81
2023-11-11T20:20:13.138Z,6.83
2023-11-11T20:22:42.062Z,6.84
2023-11-11T20:25:10.122Z,6.86
2023-11-11T20:27:38.085Z,6.88
2023-11-11T20:30:10.655Z,6.91
2023-11-11T20:32:38.618Z,6.93
2023-11-11T20:35:12.520Z,6.93
2023-11-11T20:37:43.755Z,6.93
2023-11-11T20:40:17.028Z,6.92
2023-11-11T20:42:45.582Z,6.91
2023-11-11T20:45:13.706Z,6.89
2023-11-11T20:47:41.620Z,6.87
2023-11-11T20:50:11.736Z,6.87
2023-11-11T20:52:39.928Z,6.86
2023-11-11T20:55:08.507Z,6.85
2023-11-11T20:57:36.363Z,6.84
2023-11-11T21:00:07.138Z,6.82
2023-11-11T21:02:36.278Z,6.80
2023-11-11T21:05:05.585Z,6.77
2023-11-11T21:07:35.301Z,6.76
2023-11-11T21:10:03.345Z,6.75
2023-11-11T21:12:31.009Z,6.73
2023-11-11T21:14:59.721Z,6.72
2023-11-11T21:17:28.611Z,6.71
2023-11-11T21:19:56.970Z,6.70
2023-11-11T21:22:25.710Z,6.69
2023-11-11T21:24:53.597Z,6.68
2023-11-11T21:27:21.410Z,6.67
2023-11-11T21:29:49.202Z,6.67
2023-11-11T21:32:17.073Z,6.68
2023-11-11T21:34:44.996Z,6.67
2023-11-11T21:37:12.953Z,6.66
2023-11-11T21:39:41.204Z,6.66
2023-11-11T21:42:09.036Z,6.67
2023-11-11T21:44:36.685Z,6.66
2023-11-11T21:47:04.884Z,6.63
2023-11-11T21:49:32.885Z,6.62
2023-11-11T21:52:00.618Z,6.61
2023-11-11T21:54:28.362Z,6.60
2023-11-11T21:56:56.167Z,6.59
2023-11-11T21:59:24.052Z,6.56
2023-11-11T22:01:52.025Z,6.54
2023-11-11T22:04:19.934Z,6.51
2023-11-11T22:06:47.791Z,6.47
2023-11-11T22:09:16.202Z,6.46
2023-11-11T22:11:44.197Z,6.43
2023-11-11T22:14:12.032Z,6.42
2023-11-11T22:16:39.956Z,6.42
2023-11-11T22:19:07.741Z,6.41
2023-11-11T22:21:35.395Z,6.41
2023-11-11T22:24:03.080Z,6.40
2023-11-11T22:26:30.755Z,6.41
2023-11-11T22:28:58.586Z,6.43
2023-11-11T22:31:27.393Z,6.45
2023-11-11T22:33:55.055Z,6.46
2023-11-11T22:36:23.438Z,6.48
2023-11-11T22:38:52.133Z,6.50
2023-11-11T22:41:20.302Z,6.52
2023-11-11T22:43:50.638Z,6.55
2023-11-11T22:46:20.187Z,6.57
2023-11-11T22:48:47.959Z,6.58
2023-11-11T22:51:15.735Z,6.59
2023-11-11T22:53:44.663Z,6.61
2023-11-11T22:56:12.755Z,6.63
2023-11-11T22:58:40.736Z,6.66
2023-11-11T23:01:08.541Z,6.65
2023-11-11T23:03:38.343Z,6.65
2023-11-11T23:06:06.161Z,6.66
2023-11-11T23:08:34.051Z,6.65
2023-11-11T23:11:01.988Z,6.65
2023-11-11T23:13:31.057Z,6.62
2023-11-11T23:15:58.815Z,6.57
2023-11-11T23:18:26.683Z,6.54
2023-11-11T23:21:07.099Z,6.47
2023-11-11T23:23:45.228Z,6.39
2023-11-11T23:26:14.810Z,6.35
2023-11-11T23:28:43.184Z,6.27
2023-11-11T23:31:11.061Z,6.24
2023-11-11T23:33:39.308Z,6.21
2023-11-11T23:36:07.636Z,6.19
2023-11-11T23:38:40.123Z,6.19
2023-11-11T23:41:09.493Z,6.17
2023-11-11T23:43:38.274Z,6.15
2023-11-11T23:46:06.197Z,6.15
2023-11-11T23:48:34.049Z,6.12
2023-11-11T23:51:02.098Z,6.10
2023-11-11T23:53:29.746Z,6.06
2023-11-11T23:55:57.755Z,6.03
2023-11-11T23:58:25.968Z,6.03
